createdAt,value
2023-01-19T00:01:26.557Z,8.58
2023-01-19T00:02:48.470Z,8.56
2023-01-19T00:04:10.228Z,8.52
2023-01-19T00:05:33.948Z,8.50
2023-01-19T00:06:56.037Z,8.48
2023-01-19T00:08:18.958Z,8.47
2023-01-19T00:09:40.979Z,8.45
2023-01-19T00:11:04.168Z,8.44
2023-01-19T00:12:26.889Z,8.43
2023-01-19T00:13:51.978Z,8.45
2023-01-19T00:15:16.345Z,8.44
2023-01-19T00:16:39.241Z,8.44
2023-01-19T00:18:01.650Z,8.42
2023-01-19T00:19:26.211Z,8.37
2023-01-19T00:20:51.102Z,8.35
2023-01-19T00:22:14.907Z,8.34
2023-01-19T00:23:37.201Z,8.33
2023-01-19T00:25:03.242Z,8.32
2023-01-19T00:26:25.300Z,8.35
2023-01-19T00:27:50.316Z,8.35
2023-01-19T00:29:13.430Z,8.32
2023-01-19T00:30:39.964Z,8.31
2023-01-19T00:32:09.419Z,8.29
2023-01-19T00:33:33.925Z,8.29
2023-01-19T00:34:58.965Z,8.29
2023-01-19T00:36:21.654Z,8.28
2023-01-19T00:37:49.305Z,8.30
2023-01-19T00:39:15.215Z,8.28
2023-01-19T00:40:37.139Z,8.29
2023-01-19T00:42:17.575Z,8.27
2023-01-19T00:43:47.745Z,8.21
2023-01-19T00:45:12.330Z,8.17
2023-01-19T00:46:34.404Z,8.17
2023-01-19T00:47:59.247Z,8.14
2023-01-19T00:52:16.485Z,8.15
2023-01-19T00:54:12.544Z,8.20
2023-01-19T00:55:37.324Z,8.32
2023-01-19T00:56:59.468Z,8.32
2023-01-19T00:58:23.013Z,8.41
2023-01-19T00:59:47.540Z,8.42
2023-01-19T01:01:12.218Z,8.42
2023-01-19T01:02:34.905Z,8.39
2023-01-19T01:04:01.622Z,8.35
2023-01-19T01:05:24.186Z,8.37
2023-01-19T01:06:51.771Z,8.37
2023-01-19T01:08:18.930Z,8.36
2023-01-19T01:09:43.668Z,8.32
2023-01-19T01:11:08.979Z,8.32
2023-01-19T01:12:39.284Z,8.33
2023-01-19T01:14:01.621Z,8.36
2023-01-19T01:15:24.156Z,8.35
2023-01-19T01:16:46.380Z,8.36
2023-01-19T01:18:08.769Z,8.36
2023-01-19T01:19:35.406Z,8.34
2023-01-19T01:21:10.133Z,8.31
2023-01-19T01:22:35.032Z,8.29
2023-01-19T01:23:57.218Z,8.29
2023-01-19T01:25:22.731Z,8.30
2023-01-19T01:26:45.131Z,8.27
2023-01-19T01:28:11.034Z,8.27
2023-01-19T01:29:35.463Z,8.31
2023-01-19T01:31:00.094Z,8.37
2023-01-19T01:32:25.270Z,8.35
2023-01-19T01:33:49.895Z,8.32
2023-01-19T01:35:12.731Z,8.32
2023-01-19T01:36:35.650Z,8.32
2023-01-19T01:38:01.056Z,8.33
2023-01-19T01:39:22.893Z,8.32
2023-01-19T01:40:48.063Z,8.30
2023-01-19T01:42:17.999Z,8.29
2023-01-19T01:43:53.617Z,8.28
2023-01-19T01:45:55.673Z,8.26
2023-01-19T01:47:45.225Z,8.25
2023-01-19T01:49:15.993Z,8.22
2023-01-19T01:51:19.277Z,8.31
2023-01-19T01:53:14.386Z,8.40
2023-01-19T01:54:37.605Z,8.47
2023-01-19T01:56:09.400Z,8.49
2023-01-19T01:57:31.923Z,8.51
2023-01-19T01:58:59.823Z,8.46
2023-01-19T02:00:21.810Z,8.42
2023-01-19T02:02:08.128Z,8.39
2023-01-19T02:03:33.354Z,8.36
2023-01-19T02:05:06.960Z,8.35
2023-01-19T02:06:32.009Z,8.34
2023-01-19T02:08:36.994Z,8.33
2023-01-19T02:10:17.479Z,8.30
2023-01-19T02:13:51.470Z,8.25
2023-01-19T02:15:19.151Z,8.21
2023-01-19T02:16:53.607Z,8.16
2023-01-19T02:18:17.946Z,8.17
2023-01-19T02:19:45.656Z,8.20
2023-01-19T02:21:18.494Z,8.20
2023-01-19T02:22:49.397Z,8.27
2023-01-19T02:24:12.118Z,8.23
2023-01-19T02:25:37.370Z,8.21
2023-01-19T02:27:09.742Z,8.21
2023-01-19T02:28:32.998Z,8.21
2023-01-19T02:29:58.202Z,8.16
2023-01-19T02:31:29.672Z,8.13
2023-01-19T02:32:52.411Z,8.21
2023-01-19T02:34:19.939Z,8.30
2023-01-19T02:35:42.658Z,8.47
2023-01-19T02:37:12.405Z,8.40
2023-01-19T02:38:38.872Z,8.34
2023-01-19T02:40:05.928Z,8.41
2023-01-19T02:41:41.654Z,8.53
2023-01-19T02:43:25.632Z,8.48
2023-01-19T02:45:15.664Z,8.46
2023-01-19T02:47:17.191Z,8.43
2023-01-19T02:48:45.410Z,8.46
2023-01-19T02:50:50.025Z,8.44
2023-01-19T02:52:19.442Z,8.38
2023-01-19T02:53:47.752Z,8.36
2023-01-19T02:55:25.948Z,8.32
2023-01-19T02:57:05.260Z,8.39
2023-01-19T02:59:10.585Z,8.34
2023-01-19T03:00:52.490Z,8.32
2023-01-19T03:02:44.423Z,8.34
2023-01-19T03:04:32.537Z,8.31
2023-01-19T03:06:07.357Z,8.24
2023-01-19T03:07:35.081Z,8.22
2023-01-19T03:09:07.257Z,8.20
2023-01-19T03:11:00.654Z,8.16
2023-01-19T03:12:22.608Z,8.13
2023-01-19T03:14:09.163Z,8.12
2023-01-19T03:16:01.009Z,8.10
2023-01-19T03:17:24.015Z,8.13
2023-01-19T03:18:55.944Z,8.15
2023-01-19T03:20:24.799Z,8.22
2023-01-19T03:21:51.122Z,8.21
2023-01-19T03:23:17.660Z,8.22
2023-01-19T03:24:43.675Z,8.24
2023-01-19T03:26:09.643Z,8.24
2023-01-19T03:27:40.914Z,8.22
2023-01-19T03:29:05.076Z,8.20
2023-01-19T03:30:32.707Z,8.23
2023-01-19T03:32:01.927Z,8.24
2023-01-19T03:33:29.530Z,8.22
2023-01-19T03:34:53.216Z,8.18
2023-01-19T03:37:03.398Z,8.17
2023-01-19T03:38:32.612Z,8.13
2023-01-19T03:39:55.298Z,8.10
2023-01-19T03:41:20.402Z,8.09
2023-01-19T03:42:44.664Z,8.07
2023-01-19T03:44:07.844Z,8.07
2023-01-19T03:45:32.727Z,8.09
2023-01-19T03:47:34.346Z,8.05
2023-01-19T03:48:58.601Z,8.04
2023-01-19T03:50:29.772Z,8.04
2023-01-19T03:51:55.324Z,8.07
2023-01-19T03:53:18.257Z,8.18
2023-01-19T03:54:44.524Z,8.23
2023-01-19T03:56:10.184Z,8.25
2023-01-19T03:57:35.147Z,8.26
2023-01-19T03:58:57.587Z,8.26
2023-01-19T04:00:20.111Z,8.27
2023-01-19T04:01:42.855Z,8.29
2023-01-19T04:03:13.046Z,8.27
2023-01-19T04:04:36.299Z,8.28
2023-01-19T04:05:58.668Z,8.32
2023-01-19T04:07:20.625Z,8.34
2023-01-19T04:08:43.225Z,8.38
2023-01-19T04:10:05.960Z,8.42
2023-01-19T04:11:28.486Z,8.43
2023-01-19T04:12:56.739Z,8.45
2023-01-19T04:14:19.000Z,8.40
2023-01-19T04:15:43.928Z,8.36
2023-01-19T04:17:06.036Z,8.35
2023-01-19T04:18:29.792Z,8.31
2023-01-19T04:19:51.831Z,8.28
2023-01-19T04:21:14.205Z,8.27
2023-01-19T04:22:36.527Z,8.26
2023-01-19T04:23:59.236Z,8.20
2023-01-19T04:25:21.571Z,8.18
2023-01-19T04:26:45.207Z,8.14
2023-01-19T04:28:07.020Z,8.16
2023-01-19T04:29:29.259Z,8.15
2023-01-19T04:30:54.769Z,8.17
2023-01-19T04:32:19.032Z,8.16
2023-01-19T04:33:42.397Z,8.15
2023-01-19T04:35:05.386Z,8.08
2023-01-19T04:36:28.386Z,8.07
2023-01-19T04:37:53.200Z,8.03
2023-01-19T04:39:17.854Z,8.05
2023-01-19T04:40:40.701Z,8.08
2023-01-19T04:42:06.649Z,8.07
2023-01-19T04:43:28.660Z,8.05
2023-01-19T04:44:50.291Z,8.03
2023-01-19T04:46:13.044Z,8.01
2023-01-19T04:47:35.045Z,8.08
2023-01-19T04:48:57.406Z,8.18
2023-01-19T04:50:21.057Z,8.16
2023-01-19T04:51:43.314Z,8.14
2023-01-19T04:53:05.246Z,8.11
2023-01-19T04:54:28.755Z,8.06
2023-01-19T04:55:55.607Z,8.03
2023-01-19T04:57:17.722Z,8.02
2023-01-19T04:58:39.705Z,7.98
2023-01-19T05:00:04.642Z,7.96
2023-01-19T05:01:29.041Z,7.94
2023-01-19T05:02:55.823Z,7.93
2023-01-19T05:04:22.616Z,7.93
2023-01-19T05:05:47.045Z,7.93
2023-01-19T05:07:11.775Z,7.86
2023-01-19T05:08:39.208Z,7.86
2023-01-19T05:10:07.832Z,7.85
2023-01-19T05:11:30.411Z,7.83
2023-01-19T05:12:52.591Z,7.79
2023-01-19T05:14:17.627Z,7.78
2023-01-19T05:15:43.094Z,7.76
2023-01-19T05:17:05.475Z,7.76
2023-01-19T05:18:36.036Z,7.72
2023-01-19T05:19:58.280Z,7.78
2023-01-19T05:21:21.923Z,7.79
2023-01-19T05:22:51.632Z,7.78
2023-01-19T05:24:13.973Z,7.79
2023-01-19T05:25:39.025Z,7.78
2023-01-19T05:27:01.213Z,7.81
2023-01-19T05:28:23.481Z,7.78
2023-01-19T05:29:48.168Z,7.78
2023-01-19T05:31:10.431Z,7.75
2023-01-19T05:32:32.893Z,7.75
2023-01-19T05:33:55.052Z,7.72
2023-01-19T05:35:20.148Z,7.71
2023-01-19T05:36:44.578Z,7.71
2023-01-19T05:38:06.772Z,7.74
2023-01-19T05:39:29.921Z,7.73
2023-01-19T05:40:58.558Z,7.73
2023-01-19T05:42:21.075Z,7.73
2023-01-19T05:43:44.221Z,7.72
2023-01-19T05:45:07.244Z,7.73
2023-01-19T05:46:29.431Z,7.75
2023-01-19T05:47:52.702Z,7.72
2023-01-19T05:49:14.771Z,7.73
2023-01-19T05:50:38.966Z,7.78
2023-01-19T05:52:01.189Z,7.76
2023-01-19T05:53:23.435Z,7.73
2023-01-19T05:54:45.385Z,7.71
2023-01-19T05:56:11.249Z,7.71
2023-01-19T05:57:33.653Z,7.77
2023-01-19T05:58:55.885Z,7.78
2023-01-19T06:00:18.424Z,7.78
2023-01-19T06:01:40.692Z,7.78
2023-01-19T06:03:03.222Z,7.92
2023-01-19T06:04:28.729Z,8.03
2023-01-19T06:05:50.885Z,8.06
2023-01-19T06:07:13.057Z,8.03
2023-01-19T06:08:35.259Z,7.97
2023-01-19T06:09:58.684Z,7.97
2023-01-19T06:11:23.163Z,7.97
2023-01-19T06:12:46.193Z,7.97
2023-01-19T06:14:09.551Z,7.99
2023-01-19T06:15:31.816Z,8.01
2023-01-19T06:16:56.647Z,8.05
2023-01-19T06:18:19.659Z,8.06
2023-01-19T06:19:42.167Z,8.02
2023-01-19T06:21:09.603Z,8.04
2023-01-19T06:22:31.336Z,8.08
2023-01-19T06:23:59.163Z,8.14
2023-01-19T06:25:28.230Z,8.13
2023-01-19T06:26:50.580Z,8.13
2023-01-19T06:28:15.103Z,8.16
2023-01-19T06:29:37.278Z,8.18
2023-01-19T06:30:59.341Z,8.18
2023-01-19T06:32:28.692Z,8.16
2023-01-19T06:33:55.984Z,8.19
2023-01-19T06:35:34.644Z,8.24
2023-01-19T06:37:13.448Z,8.28
2023-01-19T06:38:40.145Z,8.33
2023-01-19T06:40:03.141Z,8.37
2023-01-19T06:41:25.769Z,8.38
2023-01-19T06:42:50.364Z,8.42
2023-01-19T06:44:13.009Z,8.46
2023-01-19T06:45:35.904Z,8.49
2023-01-19T06:47:15.231Z,8.57
2023-01-19T06:48:38.170Z,8.63
2023-01-19T06:50:00.146Z,8.63
2023-01-19T06:51:22.996Z,8.69
2023-01-19T06:52:45.445Z,8.67
2023-01-19T06:54:07.648Z,8.69
2023-01-19T06:55:32.128Z,8.93
2023-01-19T06:57:01.191Z,9.72
2023-01-19T06:58:24.521Z,10.85
2023-01-19T06:59:47.709Z,11.61
2023-01-19T07:01:11.749Z,12.21
2023-01-19T07:02:47.991Z,12.82
2023-01-19T07:04:14.162Z,13.20
2023-01-19T07:05:39.015Z,13.56
2023-01-19T07:07:03.919Z,13.90
2023-01-19T07:08:32.117Z,13.89
2023-01-19T07:09:54.704Z,13.65
2023-01-19T07:11:26.575Z,13.72
2023-01-19T07:12:56.716Z,14.18
2023-01-19T07:14:23.192Z,14.15
2023-01-19T07:15:49.568Z,14.77
2023-01-19T07:17:14.317Z,15.12
2023-01-19T07:18:37.703Z,15.59
2023-01-19T07:20:02.991Z,15.53
2023-01-19T07:21:25.320Z,15.43
2023-01-19T07:22:47.246Z,15.20
2023-01-19T07:24:09.916Z,15.79
2023-01-19T07:25:32.264Z,16.11
2023-01-19T07:26:54.338Z,16.14
2023-01-19T07:28:16.753Z,16.30
2023-01-19T07:29:39.356Z,15.99
2023-01-19T07:31:01.310Z,16.43
2023-01-19T07:32:25.491Z,16.07
2023-01-19T07:33:47.996Z,16.06
2023-01-19T07:35:12.263Z,15.49
2023-01-19T07:36:37.063Z,15.96
2023-01-19T07:37:59.744Z,15.81
2023-01-19T07:39:21.830Z,15.24
2023-01-19T07:40:44.060Z,15.63
2023-01-19T07:42:06.897Z,16.16
2023-01-19T07:43:29.162Z,16.38
2023-01-19T07:44:51.147Z,16.87
2023-01-19T07:46:13.657Z,16.36
2023-01-19T07:47:35.686Z,16.49
2023-01-19T07:48:58.047Z,15.63
2023-01-19T07:50:23.973Z,15.78
2023-01-19T07:51:46.335Z,15.70
2023-01-19T07:53:12.138Z,16.25
2023-01-19T07:54:39.920Z,16.01
2023-01-19T07:56:01.992Z,15.84
2023-01-19T07:57:24.296Z,16.36
2023-01-19T07:58:46.971Z,16.21
2023-01-19T08:00:11.080Z,15.96
2023-01-19T08:02:02.144Z,16.86
2023-01-19T08:03:24.525Z,17.47
2023-01-19T08:04:51.872Z,15.53
2023-01-19T08:06:29.126Z,16.08
2023-01-19T08:07:54.251Z,15.93
2023-01-19T08:09:16.494Z,15.61
2023-01-19T08:10:41.131Z,16.54
2023-01-19T08:12:04.213Z,16.97
2023-01-19T08:13:26.876Z,17.59
2023-01-19T08:14:51.677Z,16.43
2023-01-19T08:16:16.431Z,14.62
2023-01-19T08:17:39.610Z,14.61
2023-01-19T08:19:02.040Z,14.94
2023-01-19T08:20:24.589Z,14.19
2023-01-19T08:21:46.643Z,15.02
2023-01-19T08:23:08.921Z,15.22
2023-01-19T08:24:31.779Z,14.42
2023-01-19T08:25:56.671Z,13.68
2023-01-19T08:27:23.238Z,13.60
2023-01-19T08:28:49.075Z,13.10
2023-01-19T08:30:19.984Z,13.08
2023-01-19T08:31:42.374Z,12.57
2023-01-19T08:33:04.723Z,12.25
2023-01-19T08:34:27.579Z,12.53
2023-01-19T08:35:51.424Z,12.30
2023-01-19T08:37:42.573Z,11.99
2023-01-19T08:39:10.156Z,12.05
2023-01-19T08:40:35.925Z,12.23
2023-01-19T08:42:02.737Z,12.35
2023-01-19T08:43:26.101Z,12.05
2023-01-19T08:44:57.498Z,12.00
2023-01-19T08:46:46.939Z,11.88
2023-01-19T08:48:10.056Z,11.89
2023-01-19T08:49:41.317Z,12.01
2023-01-19T08:51:03.625Z,12.63
2023-01-19T08:52:38.809Z,12.48
2023-01-19T08:54:08.896Z,12.39
2023-01-19T08:58:32.042Z,12.88
2023-01-19T09:00:44.887Z,13.09
2023-01-19T09:02:45.059Z,13.30
2023-01-19T09:04:41.635Z,13.40
2023-01-19T09:06:20.065Z,13.56
2023-01-19T09:07:59.669Z,13.67
2023-01-19T09:09:52.460Z,13.82
2023-01-19T09:11:45.987Z,13.79
2023-01-19T09:13:22.606Z,13.70
2023-01-19T09:14:48.887Z,13.93
2023-01-19T09:22:57.871Z,14.10
2023-01-19T09:24:30.478Z,14.00
2023-01-19T09:26:02.143Z,14.05
2023-01-19T09:27:27.005Z,14.00
2023-01-19T09:28:51.613Z,13.55
2023-01-19T09:30:14.097Z,13.70
2023-01-19T09:31:41.729Z,13.72
2023-01-19T09:35:09.732Z,13.80
2023-01-19T09:43:53.286Z,13.62
2023-01-19T09:45:59.774Z,13.59
2023-01-19T09:47:42.263Z,13.61
2023-01-19T09:49:34.457Z,13.49
2023-01-19T09:51:05.517Z,13.50
2023-01-19T09:52:30.931Z,13.50
2023-01-19T09:54:04.227Z,13.41
2023-01-19T09:55:27.660Z,13.34
2023-01-19T09:56:52.718Z,13.37
2023-01-19T09:58:18.432Z,13.41
2023-01-19T09:59:41.685Z,13.34
2023-01-19T10:01:35.299Z,13.23
2023-01-19T10:03:16.428Z,13.19
2023-01-19T10:04:51.318Z,13.09
2023-01-19T10:06:14.989Z,13.02
2023-01-19T10:07:54.747Z,12.90
2023-01-19T10:09:29.868Z,12.79
2023-01-19T10:10:56.883Z,12.72
2023-01-19T10:12:51.882Z,12.66
2023-01-19T10:14:29.546Z,12.63
2023-01-19T10:16:19.631Z,12.58
2023-01-19T10:17:50.559Z,12.56
2023-01-19T10:19:23.096Z,12.55
2023-01-19T10:20:52.588Z,12.50
2023-01-19T10:22:22.865Z,12.55
2023-01-19T10:23:49.591Z,12.50
2023-01-19T10:25:20.138Z,12.46
2023-01-19T10:26:47.736Z,12.39
2023-01-19T10:28:11.779Z,12.32
2023-01-19T10:29:38.853Z,12.34
2023-01-19T10:31:01.432Z,12.30
2023-01-19T10:32:26.998Z,12.25
2023-01-19T10:33:50.688Z,12.29
2023-01-19T10:35:23.585Z,12.31
2023-01-19T10:36:49.306Z,12.23
2023-01-19T10:38:15.784Z,12.24
2023-01-19T10:39:38.849Z,12.20
2023-01-19T10:41:44.734Z,12.13
2023-01-19T10:43:34.819Z,12.00
2023-01-19T10:44:57.051Z,11.97
2023-01-19T10:46:27.622Z,12.05
2023-01-19T10:47:51.398Z,11.86
2023-01-19T10:49:42.698Z,11.79
2023-01-19T10:51:06.251Z,11.71
2023-01-19T10:52:39.763Z,11.68
2023-01-19T10:54:03.890Z,11.64
2023-01-19T10:55:33.096Z,11.60
2023-01-19T10:57:07.539Z,11.53
2023-01-19T10:58:31.299Z,11.46
2023-01-19T10:59:52.983Z,11.43
2023-01-19T11:01:37.570Z,11.36
2023-01-19T11:03:00.392Z,11.33
2023-01-19T11:04:29.630Z,11.28
2023-01-19T11:05:51.905Z,11.20
2023-01-19T11:07:14.774Z,11.18
2023-01-19T11:08:36.225Z,11.06
2023-01-19T11:10:25.250Z,10.95
2023-01-19T11:11:52.706Z,10.96
2023-01-19T11:13:15.963Z,10.90
2023-01-19T11:14:38.808Z,10.86
2023-01-19T11:16:27.646Z,10.83
2023-01-19T11:17:50.589Z,10.73
2023-01-19T11:19:31.473Z,10.73
2023-01-19T11:20:56.754Z,10.63
2023-01-19T11:22:24.883Z,10.59
2023-01-19T11:23:53.914Z,10.53
2023-01-19T11:25:31.332Z,10.48
2023-01-19T11:27:06.165Z,10.45
2023-01-19T11:28:37.347Z,10.40
2023-01-19T11:30:10.424Z,10.35
2023-01-19T11:31:36.045Z,10.27
2023-01-19T11:32:58.137Z,10.28
2023-01-19T11:34:25.594Z,10.30
2023-01-19T11:35:47.376Z,10.25
2023-01-19T11:37:20.842Z,10.23
2023-01-19T11:38:45.717Z,10.22
2023-01-19T11:40:14.286Z,10.17
2023-01-19T11:41:38.386Z,10.15
2023-01-19T11:43:00.105Z,10.07
2023-01-19T11:44:32.645Z,10.10
2023-01-19T11:45:57.298Z,10.05
2023-01-19T11:47:44.935Z,9.99
2023-01-19T11:49:44.295Z,9.95
2023-01-19T11:51:16.996Z,9.84
2023-01-19T11:52:50.230Z,9.91
2023-01-19T11:54:31.726Z,9.90
2023-01-19T11:56:18.239Z,9.78
2023-01-19T11:57:54.377Z,9.82
2023-01-19T11:59:19.739Z,9.77
2023-01-19T12:00:59.592Z,9.86
2023-01-19T12:02:49.840Z,9.87
2023-01-19T12:04:17.346Z,9.82
2023-01-19T12:05:43.199Z,9.94
2023-01-19T12:07:10.731Z,9.86
2023-01-19T12:09:02.242Z,9.96
2023-01-19T12:10:32.919Z,10.06
2023-01-19T12:12:08.212Z,10.10
2023-01-19T12:13:32.092Z,10.04
2023-01-19T12:15:11.009Z,10.06
2023-01-19T12:16:38.047Z,10.02
2023-01-19T12:18:02.739Z,10.05
2023-01-19T12:19:40.909Z,10.10
2023-01-19T12:21:04.173Z,10.17
2023-01-19T12:22:30.064Z,10.26
2023-01-19T12:24:16.456Z,10.29
2023-01-19T12:26:54.356Z,10.25
2023-01-19T12:28:19.114Z,10.17
2023-01-19T12:29:41.421Z,10.22
2023-01-19T12:31:04.057Z,10.32
2023-01-19T12:32:36.858Z,10.36
2023-01-19T12:34:48.940Z,10.35
2023-01-19T12:36:38.962Z,10.27
2023-01-19T12:38:00.607Z,10.35
2023-01-19T12:39:24.959Z,10.37
2023-01-19T12:40:46.642Z,10.37
2023-01-19T12:42:20.441Z,10.34
2023-01-19T12:43:43.200Z,10.36
2023-01-19T12:45:26.014Z,10.30
2023-01-19T12:46:54.538Z,10.28
2023-01-19T12:48:27.565Z,10.39
2023-01-19T12:50:02.077Z,10.35
2023-01-19T12:51:27.527Z,10.47
2023-01-19T12:52:58.012Z,10.43
2023-01-19T12:54:34.171Z,10.46
2023-01-19T12:56:06.128Z,10.41
2023-01-19T12:57:33.027Z,10.48
2023-01-19T12:58:54.675Z,10.38
2023-01-19T13:00:25.257Z,10.47
2023-01-19T13:02:25.601Z,10.57
2023-01-19T13:03:58.716Z,10.58
2023-01-19T13:05:55.235Z,10.57
2023-01-19T13:07:18.157Z,10.61
2023-01-19T13:09:01.105Z,10.59
2023-01-19T13:11:01.761Z,10.58
2023-01-19T13:12:27.080Z,10.56
2023-01-19T13:13:51.620Z,10.58
2023-01-19T13:15:48.530Z,10.50
2023-01-19T13:17:52.724Z,10.51
2023-01-19T13:19:22.222Z,10.51
2023-01-19T13:21:06.818Z,10.39
2023-01-19T13:22:49.531Z,10.43
2023-01-19T13:24:24.153Z,10.35
2023-01-19T13:26:07.140Z,10.36
2023-01-19T13:27:28.836Z,10.32
2023-01-19T13:29:15.808Z,10.26
2023-01-19T13:30:58.465Z,10.24
2023-01-19T13:32:24.330Z,10.23
2023-01-19T13:33:54.261Z,10.22
2023-01-19T13:35:19.337Z,10.16
2023-01-19T13:36:52.223Z,10.21
2023-01-19T13:38:15.137Z,10.11
2023-01-19T13:39:44.228Z,10.18
2023-01-19T13:41:06.544Z,10.12
2023-01-19T13:42:37.390Z,10.09
2023-01-19T13:44:08.139Z,10.07
2023-01-19T13:45:38.015Z,10.15
2023-01-19T13:47:00.301Z,10.13
2023-01-19T13:48:24.285Z,10.14
2023-01-19T13:49:48.642Z,10.07
2023-01-19T13:51:18.744Z,10.15
2023-01-19T13:52:44.256Z,10.14
2023-01-19T13:54:06.334Z,10.16
2023-01-19T13:55:31.149Z,10.10
2023-01-19T13:56:55.204Z,10.13
2023-01-19T13:58:24.480Z,10.13
2023-01-19T13:59:45.932Z,10.13
2023-01-19T14:01:22.809Z,10.15
2023-01-19T14:03:21.475Z,10.08
2023-01-19T14:04:43.053Z,10.05
2023-01-19T14:06:05.089Z,10.08
2023-01-19T14:07:26.776Z,10.02
2023-01-19T14:09:07.395Z,10.00
2023-01-19T14:10:31.379Z,9.98
2023-01-19T14:12:14.063Z,10.02
2023-01-19T14:13:43.303Z,9.98
2023-01-19T14:15:11.361Z,9.92
2023-01-19T14:16:33.147Z,9.89
2023-01-19T14:18:17.813Z,9.94
2023-01-19T14:19:53.109Z,9.90
2023-01-19T14:21:18.665Z,9.88
2023-01-19T14:22:46.215Z,9.87
2023-01-19T14:24:19.027Z,9.90
2023-01-19T14:25:44.838Z,9.82
2023-01-19T14:27:24.406Z,9.87
2023-01-19T14:28:46.415Z,9.81
2023-01-19T14:30:22.187Z,9.81
2023-01-19T14:32:07.024Z,9.83
2023-01-19T14:33:46.163Z,9.92
2023-01-19T14:35:10.993Z,9.89
2023-01-19T14:36:42.026Z,9.80
2023-01-19T14:38:04.879Z,9.73
2023-01-19T14:39:34.487Z,9.69
2023-01-19T14:40:56.099Z,9.67
2023-01-19T14:42:32.382Z,9.77
2023-01-19T14:43:58.892Z,9.73
2023-01-19T14:45:32.712Z,9.76
2023-01-19T14:46:55.411Z,9.73
2023-01-19T14:48:21.797Z,9.74
2023-01-19T14:49:47.429Z,9.72
2023-01-19T14:51:17.724Z,9.71
2023-01-19T14:52:42.368Z,9.60
2023-01-19T14:54:04.226Z,9.65
2023-01-19T14:55:45.730Z,9.57
2023-01-19T14:57:13.874Z,9.56
2023-01-19T14:58:36.710Z,9.57
2023-01-19T14:59:58.172Z,9.54
2023-01-19T15:01:19.958Z,9.61
2023-01-19T15:02:42.358Z,9.62
2023-01-19T15:04:03.907Z,9.64
2023-01-19T15:05:25.475Z,9.65
2023-01-19T15:06:48.525Z,9.65
2023-01-19T15:08:21.893Z,9.63
2023-01-19T15:09:43.886Z,9.65
2023-01-19T15:11:22.292Z,9.66
2023-01-19T15:12:44.046Z,9.64
2023-01-19T15:14:06.015Z,9.61
2023-01-19T15:15:32.582Z,9.52
2023-01-19T15:16:54.374Z,9.47
2023-01-19T15:18:27.098Z,9.41
2023-01-19T15:19:48.601Z,9.41
2023-01-19T15:21:17.444Z,9.37
2023-01-19T15:22:38.948Z,9.30
2023-01-19T15:24:01.065Z,9.32
2023-01-19T15:25:27.206Z,9.30
2023-01-19T15:26:49.050Z,9.28
2023-01-19T15:28:20.549Z,9.25
2023-01-19T15:29:42.452Z,9.20
2023-01-19T15:31:04.283Z,9.16
2023-01-19T15:32:26.176Z,9.14
2023-01-19T15:33:47.626Z,9.13
2023-01-19T15:35:19.390Z,9.11
2023-01-19T15:36:42.145Z,9.11
2023-01-19T15:38:03.779Z,9.11
2023-01-19T15:39:26.286Z,9.09
2023-01-19T15:40:57.346Z,9.04
2023-01-19T15:42:18.934Z,9.00
2023-01-19T15:43:41.014Z,8.96
2023-01-19T15:45:02.842Z,8.98
2023-01-19T15:48:10.463Z,8.98
2023-01-19T15:49:33.430Z,8.96
2023-01-19T15:50:55.145Z,8.89
2023-01-19T15:52:17.185Z,8.87
2023-01-19T15:53:39.747Z,8.88
2023-01-19T15:55:01.430Z,8.85
2023-01-19T15:56:25.271Z,8.86
2023-01-19T15:57:48.675Z,8.85
2023-01-19T15:59:10.169Z,8.73
2023-01-19T16:00:36.785Z,8.84
2023-01-19T16:01:58.316Z,8.82
2023-01-19T16:03:19.949Z,8.87
2023-01-19T16:04:41.498Z,8.85
2023-01-19T16:06:03.296Z,8.86
2023-01-19T16:07:24.790Z,8.84
2023-01-19T16:08:46.335Z,8.81
2023-01-19T16:10:09.747Z,8.85
2023-01-19T16:11:34.939Z,8.84
2023-01-19T16:12:56.499Z,8.84
2023-01-19T16:14:17.954Z,8.87
2023-01-19T16:15:42.516Z,8.84
2023-01-19T16:17:05.261Z,8.86
2023-01-19T16:18:26.721Z,8.81
2023-01-19T16:19:48.490Z,8.76
2023-01-19T16:21:10.522Z,8.75
2023-01-19T16:22:32.036Z,8.71
2023-01-19T16:23:54.381Z,8.72
2023-01-19T16:25:16.319Z,8.72
2023-01-19T16:26:37.653Z,8.71
2023-01-19T16:27:59.422Z,8.67
2023-01-19T16:29:21.585Z,8.68
2023-01-19T16:30:43.024Z,8.70
2023-01-19T16:32:05.280Z,8.72
2023-01-19T16:33:26.888Z,8.66
2023-01-19T16:34:48.557Z,8.68
2023-01-19T16:36:27.539Z,8.72
2023-01-19T16:37:52.091Z,8.72
2023-01-19T16:39:15.959Z,8.71
2023-01-19T16:40:38.073Z,8.72
2023-01-19T16:41:59.520Z,8.62
2023-01-19T16:43:20.935Z,8.57
2023-01-19T16:44:45.237Z,8.60
2023-01-19T16:46:06.796Z,8.64
2023-01-19T16:47:28.495Z,8.63
2023-01-19T16:48:51.006Z,8.62
2023-01-19T16:50:13.289Z,8.56
2023-01-19T16:51:35.331Z,8.55
2023-01-19T16:52:57.794Z,8.58
2023-01-19T16:54:23.592Z,8.63
2023-01-19T16:55:46.903Z,8.59
2023-01-19T16:57:08.660Z,8.57
2023-01-19T16:58:30.579Z,8.63
2023-01-19T16:59:52.204Z,8.60
2023-01-19T17:01:19.787Z,8.60
2023-01-19T17:02:43.212Z,8.59
2023-01-19T17:04:05.598Z,8.60
2023-01-19T17:05:27.063Z,8.55
2023-01-19T17:06:50.080Z,8.53
2023-01-19T17:08:12.058Z,8.58
2023-01-19T17:09:34.340Z,8.56
2023-01-19T17:10:56.152Z,8.56
2023-01-19T17:12:18.196Z,8.55
2023-01-19T17:13:41.486Z,8.51
2023-01-19T17:15:02.915Z,8.52
2023-01-19T17:16:26.287Z,8.47
2023-01-19T17:17:48.130Z,8.47
2023-01-19T17:19:14.893Z,8.52
2023-01-19T17:20:36.967Z,8.45
2023-01-19T17:21:58.468Z,8.40
2023-01-19T17:23:20.058Z,8.40
2023-01-19T17:24:45.178Z,8.42
2023-01-19T17:26:07.087Z,8.45
2023-01-19T17:27:28.497Z,8.45
2023-01-19T17:28:50.909Z,8.47
2023-01-19T17:30:14.377Z,8.46
2023-01-19T17:31:37.440Z,8.36
2023-01-19T17:33:01.630Z,8.37
2023-01-19T17:34:26.395Z,8.39
2023-01-19T17:35:48.613Z,8.35
2023-01-19T17:37:14.437Z,8.46
2023-01-19T17:38:41.311Z,8.34
2023-01-19T17:40:09.763Z,8.44
2023-01-19T17:41:42.155Z,8.43
2023-01-19T17:44:06.457Z,8.44
2023-01-19T17:50:15.944Z,8.41
2023-01-19T17:51:40.737Z,8.32
2023-01-19T17:53:58.894Z,8.36
2023-01-19T17:56:25.197Z,8.35
2023-01-19T17:57:54.301Z,8.27
2023-01-19T17:59:21.767Z,8.15
2023-01-19T18:00:43.470Z,8.22
2023-01-19T18:02:05.799Z,8.17
2023-01-19T18:03:34.751Z,8.18
2023-01-19T18:05:18.334Z,8.23
2023-01-19T18:06:40.545Z,8.12
2023-01-19T18:08:02.983Z,8.11
2023-01-19T18:19:12.310Z,8.22
2023-01-19T18:21:17.094Z,8.26
2023-01-19T18:22:39.079Z,8.12
2023-01-19T18:24:05.597Z,8.11
2023-01-19T18:25:27.601Z,8.10
2023-01-19T18:26:54.253Z,8.16
2023-01-19T18:28:25.562Z,8.08
2023-01-19T18:32:53.971Z,8.23
2023-01-19T18:34:21.765Z,8.29
2023-01-19T18:35:55.095Z,8.29
2023-01-19T18:37:24.842Z,8.29
2023-01-19T18:41:00.675Z,8.27
2023-01-19T18:41:19.277Z,8.15
2023-01-19T18:42:41.503Z,8.12
2023-01-19T18:44:48.081Z,8.16
2023-01-19T18:47:15.302Z,7.99
2023-01-19T18:48:52.233Z,8.19
2023-01-19T18:53:23.683Z,8.02
2023-01-19T18:55:31.547Z,8.12
2023-01-19T19:00:15.211Z,8.17
2023-01-19T19:01:40.137Z,8.09
2023-01-19T19:07:35.536Z,8.27
2023-01-19T19:11:09.658Z,8.44
2023-01-19T19:16:02.272Z,8.30
2023-01-19T19:17:53.763Z,8.50
2023-01-19T19:21:03.613Z,8.47
2023-01-19T19:22:31.824Z,8.49
2023-01-19T19:24:28.029Z,8.43
2023-01-19T19:26:07.027Z,8.44
2023-01-19T19:38:00.437Z,8.44
2023-01-19T19:39:41.548Z,8.36
2023-01-19T19:41:31.374Z,8.47
2023-01-19T19:43:24.359Z,8.52
2023-01-19T19:44:54.505Z,8.51
2023-01-19T19:46:28.051Z,8.53
2023-01-19T19:47:53.853Z,8.66
2023-01-19T19:49:21.565Z,8.68
2023-01-19T19:51:18.069Z,8.57
2023-01-19T19:52:42.262Z,8.69
2023-01-19T19:54:11.173Z,8.54
2023-01-19T19:55:32.991Z,8.63
2023-01-19T19:56:54.783Z,8.49
2023-01-19T19:58:16.607Z,8.53
2023-01-19T19:59:38.488Z,8.61
2023-01-19T20:01:03.982Z,8.57
2023-01-19T20:02:48.477Z,8.57
2023-01-19T20:04:13.450Z,8.62
2023-01-19T20:05:36.576Z,8.66
2023-01-19T20:07:03.755Z,8.64
2023-01-19T20:08:25.623Z,8.64
2023-01-19T20:09:47.629Z,8.72
2023-01-19T20:14:40.567Z,8.58
2023-01-19T20:16:14.599Z,8.58
2023-01-19T20:17:49.328Z,8.47
2023-01-19T20:19:16.403Z,8.43
2023-01-19T20:20:47.350Z,8.34
2023-01-19T20:22:09.473Z,8.34
2023-01-19T20:23:43.279Z,8.34
2023-01-19T20:25:08.463Z,8.26
2023-01-19T20:26:33.610Z,8.22
2023-01-19T20:27:59.297Z,8.21
2023-01-19T20:29:27.058Z,8.20
2023-01-19T20:30:49.862Z,8.11
2023-01-19T20:32:11.693Z,8.12
2023-01-19T20:33:33.858Z,8.19
2023-01-19T20:34:55.809Z,8.18
2023-01-19T20:36:19.355Z,8.16
2023-01-19T20:37:41.254Z,8.03
2023-01-19T20:39:08.566Z,8.07
2023-01-19T20:40:30.326Z,7.99
2023-01-19T20:41:52.673Z,7.93
2023-01-19T20:43:14.682Z,7.87
2023-01-19T20:44:47.815Z,7.92